sensor_id;sensor_type;location;lat;lon;timestamp;temperature;humidity
23685;DHT22;12020;51.384;6.908;2022-08-04T00:04:40;22.60;99.90
23685;DHT22;12020;51.384;6.908;2022-08-04T00:07:29;22.60;99.90
23685;DHT22;12020;51.384;6.908;2022-08-04T00:10:02;22.50;99.90
23685;DHT22;12020;51.384;6.908;2022-08-04T00:12:32;22.50;99.90
23685;DHT22;12020;51.384;6.908;2022-08-04T00:15:02;22.50;99.90
23685;DHT22;12020;51.384;6.908;2022-08-04T00:17:38;22.50;99.90
23685;DHT22;12020;51.384;6.908;2022-08-04T00:20:04;22.50;99.90
23685;DHT22;12020;51.384;6.908;2022-08-04T00:22:34;22.50;99.90
23685;DHT22;12020;51.384;6.908;2022-08-04T00:25:04;22.50;99.90
23685;DHT22;12020;51.384;6.908;2022-08-04T00:27:30;22.40;99.90
23685;DHT22;12020;51.384;6.908;2022-08-04T00:29:57;22.40;99.90
23685;DHT22;12020;51.384;6.908;2022-08-04T00:32:25;22.40;99.90
23685;DHT22;12020;51.384;6.908;2022-08-04T00:34:54;22.40;99.90
23685;DHT22;12020;51.384;6.908;2022-08-04T00:37:24;22.40;99.90
23685;DHT22;12020;51.384;6.908;2022-08-04T00:39:53;22.30;99.90
23685;DHT22;12020;51.384;6.908;2022-08-04T00:43:07;22.30;99.90
23685;DHT22;12020;51.384;6.908;2022-08-04T01:01:42;22.20;99.90
23685;DHT22;12020;51.384;6.908;2022-08-04T01:10:02;22.10;99.90
23685;DHT22;12020;51.384;6.908;2022-08-04T01:15:06;22.20;99.90
23685;DHT22;12020;51.384;6.908;2022-08-04T01:20:16;22.10;99.90
23685;DHT22;12020;51.384;6.908;2022-08-04T01:25:51;22.10;99.90
23685;DHT22;12020;51.384;6.908;2022-08-04T01:34:19;22.00;99.90
23685;DHT22;12020;51.384;6.908;2022-08-04T01:37:22;22.00;99.90
23685;DHT22;12020;51.384;6.908;2022-08-04T01:40:00;22.00;99.90
23685;DHT22;12020;51.384;6.908;2022-08-04T01:42:30;22.00;99.90
23685;DHT22;12020;51.384;6.908;2022-08-04T01:44:59;21.90;99.90
23685;DHT22;12020;51.384;6.908;2022-08-04T01:47:29;22.00;99.90
23685;DHT22;12020;51.384;6.908;2022-08-04T01:50:04;21.90;99.90
23685;DHT22;12020;51.384;6.908;2022-08-04T01:52:31;21.90;99.90
23685;DHT22;12020;51.384;6.908;2022-08-04T01:55:00;21.80;99.90
23685;DHT22;12020;51.384;6.908;2022-08-04T01:57:28;21.80;99.90
23685;DHT22;12020;51.384;6.908;2022-08-04T01:59:58;21.80;99.90
23685;DHT22;12020;51.384;6.908;2022-08-04T02:02:24;21.80;99.90
23685;DHT22;12020;51.384;6.908;2022-08-04T02:04:50;21.70;99.90
23685;DHT22;12020;51.384;6.908;2022-08-04T02:10:06;21.70;99.90
23685;DHT22;12020;51.384;6.908;2022-08-04T02:12:41;21.70;99.90
23685;DHT22;12020;51.384;6.908;2022-08-04T02:20:38;21.70;99.90
23685;DHT22;12020;51.384;6.908;2022-08-04T02:25:55;21.70;99.90
23685;DHT22;12020;51.384;6.908;2022-08-04T02:33:46;21.60;99.90
23685;DHT22;12020;51.384;6.908;2022-08-04T02:36:25;21.60;99.90
23685;DHT22;12020;51.384;6.908;2022-08-04T02:38:58;21.60;99.90
23685;DHT22;12020;51.384;6.908;2022-08-04T02:41:26;21.50;99.90
23685;DHT22;12020;51.384;6.908;2022-08-04T02:43:56;21.50;99.90
23685;DHT22;12020;51.384;6.908;2022-08-04T02:46:24;21.50;99.90
23685;DHT22;12020;51.384;6.908;2022-08-04T02:48:52;21.50;99.90
23685;DHT22;12020;51.384;6.908;2022-08-04T02:51:40;21.50;99.90
23685;DHT22;12020;51.384;6.908;2022-08-04T02:54:16;21.50;99.90
23685;DHT22;12020;51.384;6.908;2022-08-04T02:56:44;21.40;99.90
23685;DHT22;12020;51.384;6.908;2022-08-04T02:59:13;21.40;99.90
23685;DHT22;12020;51.384;6.908;2022-08-04T03:01:40;21.40;99.90
23685;DHT22;12020;51.384;6.908;2022-08-04T03:11:55;21.40;99.90
23685;DHT22;12020;51.384;6.908;2022-08-04T03:18:06;21.30;99.90
23685;DHT22;12020;51.384;6.908;2022-08-04T03:20:11;21.40;99.90
23685;DHT22;12020;51.384;6.908;2022-08-04T03:25:55;21.30;99.90
23685;DHT22;12020;51.384;6.908;2022-08-04T03:36:51;21.30;99.90
23685;DHT22;12020;51.384;6.908;2022-08-04T03:56:30;21.00;99.90
23685;DHT22;12020;51.384;6.908;2022-08-04T04:02:22;21.00;99.90
23685;DHT22;12020;51.384;6.908;2022-08-04T04:16:48;20.80;99.90
23685;DHT22;12020;51.384;6.908;2022-08-04T04:19:36;20.80;99.90
23685;DHT22;12020;51.384;6.908;2022-08-04T04:30:35;20.80;99.90
23685;DHT22;12020;51.384;6.908;2022-08-04T04:33:51;20.70;99.90
23685;DHT22;12020;51.384;6.908;2022-08-04T04:48:15;20.70;99.90
23685;DHT22;12020;51.384;6.908;2022-08-04T04:57:33;20.70;99.90
23685;DHT22;12020;51.384;6.908;2022-08-04T04:59:37;20.70;99.90
23685;DHT22;12020;51.384;6.908;2022-08-04T05:10:56;20.70;99.90
23685;DHT22;12020;51.384;6.908;2022-08-04T05:13:48;20.70;99.90
23685;DHT22;12020;51.384;6.908;2022-08-04T05:16:25;20.70;99.90
23685;DHT22;12020;51.384;6.908;2022-08-04T05:19:13;20.70;99.90
23685;DHT22;12020;51.384;6.908;2022-08-04T05:21:48;20.70;99.90
23685;DHT22;12020;51.384;6.908;2022-08-04T05:24:19;20.70;99.90
23685;DHT22;12020;51.384;6.908;2022-08-04T05:26:50;20.80;99.90
23685;DHT22;12020;51.384;6.908;2022-08-04T05:29:36;20.80;99.90
23685;DHT22;12020;51.384;6.908;2022-08-04T05:32:07;20.80;99.90
23685;DHT22;12020;51.384;6.908;2022-08-04T05:34:41;20.90;99.90
23685;DHT22;12020;51.384;6.908;2022-08-04T05:37:14;20.90;99.90
23685;DHT22;12020;51.384;6.908;2022-08-04T05:39:47;20.90;99.90
23685;DHT22;12020;51.384;6.908;2022-08-04T05:42:14;21.00;99.90
23685;DHT22;12020;51.384;6.908;2022-08-04T05:44:42;21.00;99.90
23685;DHT22;12020;51.384;6.908;2022-08-04T05:47:10;21.00;99.90
23685;DHT22;12020;51.384;6.908;2022-08-04T05:49:38;21.00;99.90
23685;DHT22;12020;51.384;6.908;2022-08-04T05:52:06;21.00;99.90
23685;DHT22;12020;51.384;6.908;2022-08-04T05:54:34;21.10;99.90
23685;DHT22;12020;51.384;6.908;2022-08-04T05:57:16;21.10;99.90
23685;DHT22;12020;51.384;6.908;2022-08-04T05:59:43;21.10;99.90
23685;DHT22;12020;51.384;6.908;2022-08-04T06:02:13;21.20;99.90
23685;DHT22;12020;51.384;6.908;2022-08-04T06:04:46;21.30;99.90
23685;DHT22;12020;51.384;6.908;2022-08-04T06:07:13;21.40;99.90
23685;DHT22;12020;51.384;6.908;2022-08-04T06:09:39;21.40;99.90
23685;DHT22;12020;51.384;6.908;2022-08-04T06:12:13;21.50;99.90
23685;DHT22;12020;51.384;6.908;2022-08-04T06:14:43;21.60;99.90
23685;DHT22;12020;51.384;6.908;2022-08-04T06:17:14;21.70;99.90
23685;DHT22;12020;51.384;6.908;2022-08-04T06:19:40;21.80;99.90
23685;DHT22;12020;51.384;6.908;2022-08-04T06:22:10;21.80;99.90
23685;DHT22;12020;51.384;6.908;2022-08-04T06:24:37;21.90;99.90
23685;DHT22;12020;51.384;6.908;2022-08-04T06:27:04;22.00;99.90
23685;DHT22;12020;51.384;6.908;2022-08-04T06:29:32;22.10;99.90
23685;DHT22;12020;51.384;6.908;2022-08-04T06:32:03;22.20;99.90
23685;DHT22;12020;51.384;6.908;2022-08-04T06:34:39;22.30;99.90
23685;DHT22;12020;51.384;6.908;2022-08-04T06:37:07;22.40;99.90
23685;DHT22;12020;51.384;6.908;2022-08-04T06:39:33;22.60;99.90
23685;DHT22;12020;51.384;6.908;2022-08-04T06:42:00;22.70;99.90
23685;DHT22;12020;51.384;6.908;2022-08-04T06:44:29;22.80;99.90
23685;DHT22;12020;51.384;6.908;2022-08-04T06:46:56;22.90;99.90
23685;DHT22;12020;51.384;6.908;2022-08-04T06:49:23;23.00;99.90
23685;DHT22;12020;51.384;6.908;2022-08-04T06:51:52;23.10;99.90
23685;DHT22;12020;51.384;6.908;2022-08-04T06:54:18;23.30;99.90
23685;DHT22;12020;51.384;6.908;2022-08-04T06:56:44;23.40;99.90
23685;DHT22;12020;51.384;6.908;2022-08-04T06:59:11;23.50;99.90
23685;DHT22;12020;51.384;6.908;2022-08-04T07:01:39;23.50;99.90
23685;DHT22;12020;51.384;6.908;2022-08-04T07:04:05;23.60;99.90
23685;DHT22;12020;51.384;6.908;2022-08-04T07:06:32;23.80;99.90
23685;DHT22;12020;51.384;6.908;2022-08-04T07:08:58;23.80;99.90
23685;DHT22;12020;51.384;6.908;2022-08-04T07:11:25;23.90;99.90
23685;DHT22;12020;51.384;6.908;2022-08-04T07:13:55;24.00;99.90
23685;DHT22;12020;51.384;6.908;2022-08-04T07:16:23;24.00;99.90
23685;DHT22;12020;51.384;6.908;2022-08-04T07:18:50;24.20;99.90
23685;DHT22;12020;51.384;6.908;2022-08-04T07:21:20;24.30;99.90
23685;DHT22;12020;51.384;6.908;2022-08-04T07:23:46;24.40;99.90
23685;DHT22;12020;51.384;6.908;2022-08-04T07:26:12;24.50;99.90
23685;DHT22;12020;51.384;6.908;2022-08-04T07:28:47;24.70;99.90
23685;DHT22;12020;51.384;6.908;2022-08-04T07:31:16;24.70;99.90
23685;DHT22;12020;51.384;6.908;2022-08-04T07:33:43;24.80;99.90
23685;DHT22;12020;51.384;6.908;2022-08-04T07:36:10;25.00;99.90
23685;DHT22;12020;51.384;6.908;2022-08-04T07:38:38;25.10;99.90
23685;DHT22;12020;51.384;6.908;2022-08-04T07:41:04;25.20;99.90
23685;DHT22;12020;51.384;6.908;2022-08-04T07:43:31;25.30;99.90
23685;DHT22;12020;51.384;6.908;2022-08-04T07:45:57;25.40;99.90
23685;DHT22;12020;51.384;6.908;2022-08-04T07:48:22;25.50;99.90
23685;DHT22;12020;51.384;6.908;2022-08-04T07:50:49;25.60;99.90
23685;DHT22;12020;51.384;6.908;2022-08-04T07:53:15;25.70;99.90
23685;DHT22;12020;51.384;6.908;2022-08-04T07:55:44;25.90;99.90
23685;DHT22;12020;51.384;6.908;2022-08-04T07:58:11;26.00;99.90
23685;DHT22;12020;51.384;6.908;2022-08-04T08:00:37;26.10;99.90
23685;DHT22;12020;51.384;6.908;2022-08-04T08:03:06;26.30;99.90
23685;DHT22;12020;51.384;6.908;2022-08-04T08:05:33;26.40;99.90
23685;DHT22;12020;51.384;6.908;2022-08-04T08:08:00;26.70;99.90
23685;DHT22;12020;51.384;6.908;2022-08-04T08:10:26;26.90;99.90
23685;DHT22;12020;51.384;6.908;2022-08-04T08:12:52;27.20;99.90
23685;DHT22;12020;51.384;6.908;2022-08-04T08:15:19;27.40;99.90
23685;DHT22;12020;51.384;6.908;2022-08-04T08:17:48;27.60;99.90
23685;DHT22;12020;51.384;6.908;2022-08-04T08:20:15;27.80;99.90
23685;DHT22;12020;51.384;6.908;2022-08-04T08:22:41;28.20;99.90
23685;DHT22;12020;51.384;6.908;2022-08-04T08:25:07;28.40;99.90
23685;DHT22;12020;51.384;6.908;2022-08-04T08:27:33;28.60;99.90
23685;DHT22;12020;51.384;6.908;2022-08-04T08:30:01;28.90;99.90
23685;DHT22;12020;51.384;6.908;2022-08-04T08:32:26;29.10;99.90
23685;DHT22;12020;51.384;6.908;2022-08-04T08:34:52;29.30;99.90
23685;DHT22;12020;51.384;6.908;2022-08-04T08:37:52;29.50;99.90
23685;DHT22;12020;51.384;6.908;2022-08-04T08:45:19;30.10;99.90
23685;DHT22;12020;51.384;6.908;2022-08-04T09:06:07;31.30;99.90
23685;DHT22;12020;51.384;6.908;2022-08-04T09:11:19;31.80;99.90
23685;DHT22;12020;51.384;6.908;2022-08-04T09:14:07;32.00;99.90
23685;DHT22;12020;51.384;6.908;2022-08-04T09:16:37;32.10;99.90
23685;DHT22;12020;51.384;6.908;2022-08-04T09:19:28;32.30;99.90
23685;DHT22;12020;51.384;6.908;2022-08-04T09:24:28;32.60;99.90
23685;DHT22;12020;51.384;6.908;2022-08-04T09:27:04;32.60;99.20
23685;DHT22;12020;51.384;6.908;2022-08-04T09:29:35;32.60;98.80
23685;DHT22;12020;51.384;6.908;2022-08-04T09:34:55;32.30;97.00
23685;DHT22;12020;51.384;6.908;2022-08-04T09:42:32;31.90;98.40
23685;DHT22;12020;51.384;6.908;2022-08-04T09:45:09;31.90;97.10
23685;DHT22;12020;51.384;6.908;2022-08-04T09:47:49;31.80;96.80
23685;DHT22;12020;51.384;6.908;2022-08-04T09:52:55;31.70;97.60
23685;DHT22;12020;51.384;6.908;2022-08-04T09:58:02;31.80;98.00
23685;DHT22;12020;51.384;6.908;2022-08-04T10:00:33;32.10;98.30
23685;DHT22;12020;51.384;6.908;2022-08-04T10:03:00;32.30;97.90
23685;DHT22;12020;51.384;6.908;2022-08-04T10:15:47;33.20;95.10
23685;DHT22;12020;51.384;6.908;2022-08-04T10:18:20;33.20;94.80
23685;DHT22;12020;51.384;6.908;2022-08-04T10:28:46;33.00;92.80
23685;DHT22;12020;51.384;6.908;2022-08-04T10:31:18;32.90;93.00
23685;DHT22;12020;51.384;6.908;2022-08-04T10:33:49;32.70;92.60
23685;DHT22;12020;51.384;6.908;2022-08-04T10:36:16;32.60;92.00
23685;DHT22;12020;51.384;6.908;2022-08-04T10:39:26;32.50;92.00
23685;DHT22;12020;51.384;6.908;2022-08-04T10:41:46;32.40;92.40
23685;DHT22;12020;51.384;6.908;2022-08-04T10:46:53;32.40;92.40
23685;DHT22;12020;51.384;6.908;2022-08-04T10:49:42;32.30;92.00
23685;DHT22;12020;51.384;6.908;2022-08-04T10:57:03;32.20;92.70
23685;DHT22;12020;51.384;6.908;2022-08-04T10:59:52;32.20;93.10
23685;DHT22;12020;51.384;6.908;2022-08-04T11:04:50;32.40;93.30
23685;DHT22;12020;51.384;6.908;2022-08-04T11:07:17;32.40;93.20
23685;DHT22;12020;51.384;6.908;2022-08-04T11:09:43;32.50;93.30
23685;DHT22;12020;51.384;6.908;2022-08-04T11:12:11;32.60;93.20
23685;DHT22;12020;51.384;6.908;2022-08-04T11:15:15;32.60;93.30
23685;DHT22;12020;51.384;6.908;2022-08-04T11:17:40;32.70;92.80
23685;DHT22;12020;51.384;6.908;2022-08-04T11:20:16;32.70;92.80
23685;DHT22;12020;51.384;6.908;2022-08-04T11:25:26;32.70;92.90
23685;DHT22;12020;51.384;6.908;2022-08-04T11:30:28;32.60;93.30
23685;DHT22;12020;51.384;6.908;2022-08-04T11:35:31;32.60;92.20
23685;DHT22;12020;51.384;6.908;2022-08-04T11:38:02;32.50;91.70
23685;DHT22;12020;51.384;6.908;2022-08-04T11:40:35;32.40;91.70
23685;DHT22;12020;51.384;6.908;2022-08-04T11:43:07;32.30;91.70
23685;DHT22;12020;51.384;6.908;2022-08-04T11:45:35;32.20;91.70
23685;DHT22;12020;51.384;6.908;2022-08-04T11:48:03;32.10;91.40
23685;DHT22;12020;51.384;6.908;2022-08-04T11:50:38;31.90;91.50
23685;DHT22;12020;51.384;6.908;2022-08-04T11:53:05;31.80;91.20
23685;DHT22;12020;51.384;6.908;2022-08-04T11:55:32;31.70;91.10
23685;DHT22;12020;51.384;6.908;2022-08-04T11:57:58;31.70;91.40
23685;DHT22;12020;51.384;6.908;2022-08-04T12:00:24;31.70;91.20
23685;DHT22;12020;51.384;6.908;2022-08-04T12:13:33;31.30;92.20
23685;DHT22;12020;51.384;6.908;2022-08-04T12:18:32;31.20;93.00
23685;DHT22;12020;51.384;6.908;2022-08-04T12:21:00;31.20;93.80
23685;DHT22;12020;51.384;6.908;2022-08-04T12:23:31;31.10;94.00
23685;DHT22;12020;51.384;6.908;2022-08-04T12:25:59;31.00;93.40
23685;DHT22;12020;51.384;6.908;2022-08-04T12:28:36;30.90;93.20
23685;DHT22;12020;51.384;6.908;2022-08-04T12:33:52;30.80;93.90
23685;DHT22;12020;51.384;6.908;2022-08-04T12:36:31;31.00;94.60
23685;DHT22;12020;51.384;6.908;2022-08-04T12:39:14;31.10;94.70
23685;DHT22;12020;51.384;6.908;2022-08-04T12:41:51;31.20;94.60
23685;DHT22;12020;51.384;6.908;2022-08-04T12:44:20;31.20;94.00
23685;DHT22;12020;51.384;6.908;2022-08-04T12:46:46;31.10;93.70
23685;DHT22;12020;51.384;6.908;2022-08-04T12:49:12;31.10;94.10
23685;DHT22;12020;51.384;6.908;2022-08-04T12:51:41;31.00;93.80
23685;DHT22;12020;51.384;6.908;2022-08-04T12:54:22;30.90;94.00
23685;DHT22;12020;51.384;6.908;2022-08-04T12:56:49;30.90;94.20
23685;DHT22;12020;51.384;6.908;2022-08-04T12:59:15;31.00;95.40
23685;DHT22;12020;51.384;6.908;2022-08-04T13:01:48;31.00;94.70
23685;DHT22;12020;51.384;6.908;2022-08-04T13:04:15;31.10;94.60
23685;DHT22;12020;51.384;6.908;2022-08-04T13:06:42;31.20;97.10
23685;DHT22;12020;51.384;6.908;2022-08-04T13:09:15;31.20;97.60
23685;DHT22;12020;51.384;6.908;2022-08-04T13:11:43;31.30;97.20
23685;DHT22;12020;51.384;6.908;2022-08-04T13:14:12;31.30;97.20
23685;DHT22;12020;51.384;6.908;2022-08-04T13:16:39;31.20;97.40
23685;DHT22;12020;51.384;6.908;2022-08-04T13:19:08;31.30;96.90
23685;DHT22;12020;51.384;6.908;2022-08-04T13:21:34;31.20;97.10
23685;DHT22;12020;51.384;6.908;2022-08-04T13:24:08;31.20;96.90
23685;DHT22;12020;51.384;6.908;2022-08-04T13:26:34;31.20;96.80
23685;DHT22;12020;51.384;6.908;2022-08-04T13:29:02;31.20;96.00
23685;DHT22;12020;51.384;6.908;2022-08-04T13:31:28;31.10;96.00
23685;DHT22;12020;51.384;6.908;2022-08-04T13:33:54;31.00;96.40
23685;DHT22;12020;51.384;6.908;2022-08-04T13:36:26;31.00;96.20
23685;DHT22;12020;51.384;6.908;2022-08-04T13:38:57;31.00;95.40
23685;DHT22;12020;51.384;6.908;2022-08-04T13:41:24;30.90;95.60
23685;DHT22;12020;51.384;6.908;2022-08-04T13:43:53;31.00;96.60
23685;DHT22;12020;51.384;6.908;2022-08-04T13:46:21;31.00;96.40
23685;DHT22;12020;51.384;6.908;2022-08-04T13:48:46;31.00;95.80
23685;DHT22;12020;51.384;6.908;2022-08-04T13:51:14;31.00;95.10
23685;DHT22;12020;51.384;6.908;2022-08-04T13:53:41;31.10;95.20
23685;DHT22;12020;51.384;6.908;2022-08-04T13:56:07;31.10;94.90
23685;DHT22;12020;51.384;6.908;2022-08-04T13:58:38;31.10;94.70
23685;DHT22;12020;51.384;6.908;2022-08-04T14:01:14;31.10;95.40
23685;DHT22;12020;51.384;6.908;2022-08-04T14:06:28;31.10;95.50
23685;DHT22;12020;51.384;6.908;2022-08-04T14:11:36;31.00;95.80
23685;DHT22;12020;51.384;6.908;2022-08-04T14:14:19;31.00;95.80
23685;DHT22;12020;51.384;6.908;2022-08-04T14:16:58;30.90;95.00
23685;DHT22;12020;51.384;6.908;2022-08-04T14:19:25;30.90;95.00
23685;DHT22;12020;51.384;6.908;2022-08-04T14:21:50;30.90;94.60
23685;DHT22;12020;51.384;6.908;2022-08-04T14:24:26;30.80;94.40
23685;DHT22;12020;51.384;6.908;2022-08-04T14:26:52;30.80;94.00
23685;DHT22;12020;51.384;6.908;2022-08-04T14:29:17;30.70;94.20
23685;DHT22;12020;51.384;6.908;2022-08-04T14:31:46;30.70;94.40
23685;DHT22;12020;51.384;6.908;2022-08-04T14:34:23;30.70;94.60
23685;DHT22;12020;51.384;6.908;2022-08-04T14:36:49;30.70;94.90
23685;DHT22;12020;51.384;6.908;2022-08-04T14:39:14;30.70;95.60
23685;DHT22;12020;51.384;6.908;2022-08-04T14:41:44;30.70;95.60
23685;DHT22;12020;51.384;6.908;2022-08-04T14:44:11;30.60;95.60
23685;DHT22;12020;51.384;6.908;2022-08-04T14:46:53;30.60;95.40
23685;DHT22;12020;51.384;6.908;2022-08-04T14:49:19;30.50;95.30
23685;DHT22;12020;51.384;6.908;2022-08-04T14:51:50;30.40;95.00
23685;DHT22;12020;51.384;6.908;2022-08-04T14:54:23;30.40;95.20
23685;DHT22;12020;51.384;6.908;2022-08-04T14:56:54;30.20;95.20
23685;DHT22;12020;51.384;6.908;2022-08-04T14:59:19;30.10;95.20
23685;DHT22;12020;51.384;6.908;2022-08-04T15:01:45;30.00;95.30
23685;DHT22;12020;51.384;6.908;2022-08-04T15:04:13;29.90;95.40
23685;DHT22;12020;51.384;6.908;2022-08-04T15:06:39;29.80;95.70
23685;DHT22;12020;51.384;6.908;2022-08-04T15:09:06;29.70;96.00
23685;DHT22;12020;51.384;6.908;2022-08-04T15:11:32;29.70;96.40
23685;DHT22;12020;51.384;6.908;2022-08-04T15:13:58;29.70;96.40
23685;DHT22;12020;51.384;6.908;2022-08-04T15:16:25;29.70;96.60
23685;DHT22;12020;51.384;6.908;2022-08-04T15:18:51;29.70;97.00
23685;DHT22;12020;51.384;6.908;2022-08-04T15:21:18;29.60;97.20
23685;DHT22;12020;51.384;6.908;2022-08-04T15:23:43;29.60;97.50
23685;DHT22;12020;51.384;6.908;2022-08-04T15:26:11;29.60;98.00
23685;DHT22;12020;51.384;6.908;2022-08-04T15:28:38;29.60;97.80
23685;DHT22;12020;51.384;6.908;2022-08-04T15:31:04;29.50;97.80
23685;DHT22;12020;51.384;6.908;2022-08-04T15:33:30;29.50;97.90
23685;DHT22;12020;51.384;6.908;2022-08-04T15:36:12;29.50;98.00
23685;DHT22;12020;51.384;6.908;2022-08-04T15:38:49;29.50;98.10
23685;DHT22;12020;51.384;6.908;2022-08-04T15:41:40;29.50;97.90
23685;DHT22;12020;51.384;6.908;2022-08-04T15:49:28;29.40;99.20
23685;DHT22;12020;51.384;6.908;2022-08-04T15:52:00;29.40;99.60
23685;DHT22;12020;51.384;6.908;2022-08-04T15:54:26;29.40;99.70
23685;DHT22;12020;51.384;6.908;2022-08-04T15:56:51;29.40;99.50
23685;DHT22;12020;51.384;6.908;2022-08-04T16:04:46;29.10;98.60
23685;DHT22;12020;51.384;6.908;2022-08-04T16:07:11;29.00;98.30
23685;DHT22;12020;51.384;6.908;2022-08-04T16:09:37;28.80;98.30
23685;DHT22;12020;51.384;6.908;2022-08-04T16:12:02;28.80;98.60
23685;DHT22;12020;51.384;6.908;2022-08-04T16:14:31;28.70;98.70
23685;DHT22;12020;51.384;6.908;2022-08-04T16:17:12;28.60;98.90
23685;DHT22;12020;51.384;6.908;2022-08-04T16:19:45;28.70;99.50
23685;DHT22;12020;51.384;6.908;2022-08-04T16:25:17;28.70;99.90
23685;DHT22;12020;51.384;6.908;2022-08-04T16:28:02;28.70;99.90
23685;DHT22;12020;51.384;6.908;2022-08-04T16:30:29;28.70;99.90
23685;DHT22;12020;51.384;6.908;2022-08-04T16:33:03;28.80;99.90
23685;DHT22;12020;51.384;6.908;2022-08-04T16:35:32;28.80;99.90
23685;DHT22;12020;51.384;6.908;2022-08-04T16:38:12;28.80;99.90
23685;DHT22;12020;51.384;6.908;2022-08-04T16:40:38;28.70;99.90
23685;DHT22;12020;51.384;6.908;2022-08-04T16:45:41;28.70;99.90
23685;DHT22;12020;51.384;6.908;2022-08-04T16:48:07;28.60;99.90
23685;DHT22;12020;51.384;6.908;2022-08-04T16:50:33;28.60;99.90
23685;DHT22;12020;51.384;6.908;2022-08-04T16:53:09;28.50;99.90
23685;DHT22;12020;51.384;6.908;2022-08-04T16:55:35;28.50;99.90
23685;DHT22;12020;51.384;6.908;2022-08-04T16:58:01;28.40;99.90
23685;DHT22;12020;51.384;6.908;2022-08-04T17:00:31;28.40;99.90
23685;DHT22;12020;51.384;6.908;2022-08-04T17:02:57;28.40;99.90
23685;DHT22;12020;51.384;6.908;2022-08-04T17:05:25;28.30;99.90
23685;DHT22;12020;51.384;6.908;2022-08-04T17:07:52;28.30;99.90
23685;DHT22;12020;51.384;6.908;2022-08-04T17:10:18;28.30;99.90
23685;DHT22;12020;51.384;6.908;2022-08-04T17:12:44;28.20;99.90
23685;DHT22;12020;51.384;6.908;2022-08-04T17:15:22;28.20;99.90
23685;DHT22;12020;51.384;6.908;2022-08-04T17:17:49;28.20;99.90
23685;DHT22;12020;51.384;6.908;2022-08-04T17:20:15;28.20;99.90
23685;DHT22;12020;51.384;6.908;2022-08-04T17:22:40;28.10;99.90
23685;DHT22;12020;51.384;6.908;2022-08-04T17:25:06;28.00;99.90
23685;DHT22;12020;51.384;6.908;2022-08-04T17:27:32;28.10;99.90
23685;DHT22;12020;51.384;6.908;2022-08-04T17:29:58;28.10;99.90
23685;DHT22;12020;51.384;6.908;2022-08-04T17:32:24;28.00;99.90
23685;DHT22;12020;51.384;6.908;2022-08-04T17:34:55;27.90;99.90
23685;DHT22;12020;51.384;6.908;2022-08-04T17:37:21;27.90;99.90
23685;DHT22;12020;51.384;6.908;2022-08-04T17:39:49;27.90;99.90
23685;DHT22;12020;51.384;6.908;2022-08-04T17:42:26;27.80;99.90
23685;DHT22;12020;51.384;6.908;2022-08-04T17:44:52;27.90;99.90
23685;DHT22;12020;51.384;6.908;2022-08-04T17:47:30;27.80;99.90
23685;DHT22;12020;51.384;6.908;2022-08-04T17:50:05;27.80;99.90
23685;DHT22;12020;51.384;6.908;2022-08-04T17:52:31;27.80;99.90
23685;DHT22;12020;51.384;6.908;2022-08-04T17:54:59;27.80;99.90
23685;DHT22;12020;51.384;6.908;2022-08-04T17:57:26;27.70;99.90
23685;DHT22;12020;51.384;6.908;2022-08-04T17:59:52;27.70;99.90
23685;DHT22;12020;51.384;6.908;2022-08-04T18:02:25;27.70;99.90
23685;DHT22;12020;51.384;6.908;2022-08-04T18:04:51;27.60;99.90
23685;DHT22;12020;51.384;6.908;2022-08-04T18:07:21;27.70;99.90
23685;DHT22;12020;51.384;6.908;2022-08-04T18:14:52;27.50;99.90
23685;DHT22;12020;51.384;6.908;2022-08-04T18:17:35;27.40;99.90
23685;DHT22;12020;51.384;6.908;2022-08-04T18:20:03;27.30;99.90
23685;DHT22;12020;51.384;6.908;2022-08-04T18:22:29;27.30;99.90
23685;DHT22;12020;51.384;6.908;2022-08-04T18:24:55;27.20;99.90
23685;DHT22;12020;51.384;6.908;2022-08-04T18:27:22;27.10;99.90
23685;DHT22;12020;51.384;6.908;2022-08-04T18:29:48;27.00;99.90
23685;DHT22;12020;51.384;6.908;2022-08-04T18:32:14;26.90;99.90
23685;DHT22;12020;51.384;6.908;2022-08-04T18:34:39;26.90;99.90
23685;DHT22;12020;51.384;6.908;2022-08-04T18:37:05;26.80;99.90
23685;DHT22;12020;51.384;6.908;2022-08-04T18:39:30;26.70;99.90
23685;DHT22;12020;51.384;6.908;2022-08-04T18:41:56;26.50;99.90
23685;DHT22;12020;51.384;6.908;2022-08-04T18:44:22;26.40;99.90
23685;DHT22;12020;51.384;6.908;2022-08-04T18:46:48;26.40;99.90
23685;DHT22;12020;51.384;6.908;2022-08-04T18:49:13;26.30;99.90
23685;DHT22;12020;51.384;6.908;2022-08-04T18:51:39;26.20;99.90
23685;DHT22;12020;51.384;6.908;2022-08-04T18:54:05;26.10;99.90
23685;DHT22;12020;51.384;6.908;2022-08-04T18:56:32;26.00;99.90
23685;DHT22;12020;51.384;6.908;2022-08-04T18:59:01;26.00;99.90
23685;DHT22;12020;51.384;6.908;2022-08-04T19:01:27;26.00;99.90
23685;DHT22;12020;51.384;6.908;2022-08-04T19:03:52;26.00;99.90
23685;DHT22;12020;51.384;6.908;2022-08-04T19:06:18;25.90;99.90
23685;DHT22;12020;51.384;6.908;2022-08-04T19:08:44;25.80;99.90
23685;DHT22;12020;51.384;6.908;2022-08-04T19:11:09;25.80;99.90
23685;DHT22;12020;51.384;6.908;2022-08-04T19:13:35;25.70;99.90
23685;DHT22;12020;51.384;6.908;2022-08-04T19:16:00;25.70;99.90
23685;DHT22;12020;51.384;6.908;2022-08-04T19:18:26;25.70;99.90
23685;DHT22;12020;51.384;6.908;2022-08-04T19:20:52;25.70;99.90
23685;DHT22;12020;51.384;6.908;2022-08-04T19:23:18;25.60;99.90
23685;DHT22;12020;51.384;6.908;2022-08-04T19:25:45;25.60;99.90
23685;DHT22;12020;51.384;6.908;2022-08-04T19:28:11;25.60;99.90
23685;DHT22;12020;51.384;6.908;2022-08-04T19:30:37;25.60;99.90
23685;DHT22;12020;51.384;6.908;2022-08-04T19:33:02;25.50;99.90
23685;DHT22;12020;51.384;6.908;2022-08-04T19:35:28;25.40;99.90
23685;DHT22;12020;51.384;6.908;2022-08-04T19:37:54;25.40;99.90
23685;DHT22;12020;51.384;6.908;2022-08-04T19:40:20;25.30;99.90
23685;DHT22;12020;51.384;6.908;2022-08-04T19:42:45;25.30;99.90
23685;DHT22;12020;51.384;6.908;2022-08-04T19:45:11;25.20;99.90
23685;DHT22;12020;51.384;6.908;2022-08-04T19:47:37;25.10;99.90
23685;DHT22;12020;51.384;6.908;2022-08-04T19:50:05;25.10;99.90
23685;DHT22;12020;51.384;6.908;2022-08-04T19:52:31;25.00;99.90
23685;DHT22;12020;51.384;6.908;2022-08-04T19:54:57;25.00;99.90
23685;DHT22;12020;51.384;6.908;2022-08-04T19:57:22;25.00;99.90
23685;DHT22;12020;51.384;6.908;2022-08-04T19:59:48;25.00;99.90
23685;DHT22;12020;51.384;6.908;2022-08-04T20:02:14;25.10;99.90
23685;DHT22;12020;51.384;6.908;2022-08-04T20:04:39;25.10;99.90
23685;DHT22;12020;51.384;6.908;2022-08-04T20:07:05;25.00;99.90
23685;DHT22;12020;51.384;6.908;2022-08-04T20:09:31;25.00;99.90
23685;DHT22;12020;51.384;6.908;2022-08-04T20:11:57;25.00;99.90
23685;DHT22;12020;51.384;6.908;2022-08-04T20:14:23;24.90;99.90